sensor_id;sensor_type;location;lat;lon;timestamp;P1;durP1;ratioP1;P2;durP2;ratioP2
5277;SDS011;2662;51.194;6.614;2023-08-17T00:00:22;15.33;;;6.63;;
5277;SDS011;2662;51.194;6.614;2023-08-17T00:02:50;10.13;;;5.67;;
5277;SDS011;2662;51.194;6.614;2023-08-17T00:05:17;7.07;;;5.43;;
5277;SDS011;2662;51.194;6.614;2023-08-17T00:07:44;13.90;;;7.00;;
5277;SDS011;2662;51.194;6.614;2023-08-17T00:10:11;9.77;;;5.97;;
5277;SDS011;2662;51.194;6.614;2023-08-17T00:12:37;14.83;;;6.70;;
5277;SDS011;2662;51.194;6.614;2023-08-17T00:15:05;11.20;;;6.83;;
5277;SDS011;2662;51.194;6.614;2023-08-17T00:17:32;16.83;;;7.57;;
5277;SDS011;2662;51.194;6.614;2023-08-17T00:20:00;11.63;;;8.20;;
5277;SDS011;2662;51.194;6.614;2023-08-17T00:22:30;16.17;;;7.30;;
5277;SDS011;2662;51.194;6.614;2023-08-17T00:24:56;10.30;;;8.23;;
5277;SDS011;2662;51.194;6.614;2023-08-17T00:27:23;10.87;;;7.87;;
5277;SDS011;2662;51.194;6.614;2023-08-17T00:29:50;12.20;;;8.20;;
5277;SDS011;2662;51.194;6.614;2023-08-17T00:32:16;18.50;;;9.00;;
5277;SDS011;2662;51.194;6.614;2023-08-17T00:34:43;13.53;;;8.93;;
5277;SDS011;2662;51.194;6.614;2023-08-17T00:37:11;21.97;;;10.20;;
5277;SDS011;2662;51.194;6.614;2023-08-17T00:39:38;20.43;;;9.00;;
5277;SDS011;2662;51.194;6.614;2023-08-17T00:42:04;9.80;;;8.10;;
5277;SDS011;2662;51.194;6.614;2023-08-17T00:44:33;14.50;;;8.60;;
5277;SDS011;2662;51.194;6.614;2023-08-17T00:46:59;13.00;;;8.70;;
5277;SDS011;2662;51.194;6.614;2023-08-17T00:49:26;17.30;;;9.43;;
5277;SDS011;2662;51.194;6.614;2023-08-17T00:51:53;12.70;;;7.57;;
5277;SDS011;2662;51.194;6.614;2023-08-17T00:54:23;10.40;;;8.10;;
5277;SDS011;2662;51.194;6.614;2023-08-17T00:56:52;13.40;;;8.47;;
5277;SDS011;2662;51.194;6.614;2023-08-17T00:59:19;12.77;;;8.57;;
5277;SDS011;2662;51.194;6.614;2023-08-17T01:01:46;12.13;;;8.43;;
5277;SDS011;2662;51.194;6.614;2023-08-17T01:04:14;14.30;;;8.20;;
5277;SDS011;2662;51.194;6.614;2023-08-17T01:06:40;12.17;;;8.50;;
5277;SDS011;2662;51.194;6.614;2023-08-17T01:09:07;17.67;;;9.67;;
5277;SDS011;2662;51.194;6.614;2023-08-17T01:11:37;16.90;;;7.53;;
5277;SDS011;2662;51.194;6.614;2023-08-17T01:14:09;13.40;;;8.97;;
5277;SDS011;2662;51.194;6.614;2023-08-17T01:16:42;12.73;;;8.57;;
5277;SDS011;2662;51.194;6.614;2023-08-17T01:19:12;10.07;;;7.90;;
5277;SDS011;2662;51.194;6.614;2023-08-17T01:21:43;11.50;;;7.70;;
5277;SDS011;2662;51.194;6.614;2023-08-17T01:24:17;13.10;;;8.00;;
5277;SDS011;2662;51.194;6.614;2023-08-17T01:26:44;14.63;;;7.93;;
5277;SDS011;2662;51.194;6.614;2023-08-17T01:29:11;14.17;;;7.40;;
5277;SDS011;2662;51.194;6.614;2023-08-17T01:31:40;8.97;;;7.20;;
5277;SDS011;2662;51.194;6.614;2023-08-17T01:34:14;11.20;;;8.00;;
5277;SDS011;2662;51.194;6.614;2023-08-17T01:36:46;16.93;;;8.90;;
5277;SDS011;2662;51.194;6.614;2023-08-17T01:39:19;11.40;;;8.20;;
5277;SDS011;2662;51.194;6.614;2023-08-17T01:41:52;18.43;;;9.17;;
5277;SDS011;2662;51.194;6.614;2023-08-17T01:44:21;12.70;;;8.33;;
5277;SDS011;2662;51.194;6.614;2023-08-17T01:46:50;10.90;;;7.30;;
5277;SDS011;2662;51.194;6.614;2023-08-17T01:49:16;11.03;;;6.73;;
5277;SDS011;2662;51.194;6.614;2023-08-17T01:51:43;12.30;;;7.70;;
5277;SDS011;2662;51.194;6.614;2023-08-17T01:54:10;10.30;;;7.00;;
5277;SDS011;2662;51.194;6.614;2023-08-17T01:56:38;10.03;;;7.10;;
5277;SDS011;2662;51.194;6.614;2023-08-17T01:59:06;9.40;;;7.37;;
5277;SDS011;2662;51.194;6.614;2023-08-17T02:01:32;13.83;;;9.17;;
5277;SDS011;2662;51.194;6.614;2023-08-17T02:03:59;10.60;;;7.13;;
5277;SDS011;2662;51.194;6.614;2023-08-17T02:06:27;10.50;;;7.70;;
5277;SDS011;2662;51.194;6.614;2023-08-17T02:08:54;14.37;;;7.50;;
5277;SDS011;2662;51.194;6.614;2023-08-17T02:11:20;14.83;;;7.97;;
5277;SDS011;2662;51.194;6.614;2023-08-17T02:13:48;12.40;;;7.43;;
5277;SDS011;2662;51.194;6.614;2023-08-17T02:16:15;11.13;;;7.43;;
5277;SDS011;2662;51.194;6.614;2023-08-17T02:18:42;11.00;;;7.40;;
5277;SDS011;2662;51.194;6.614;2023-08-17T02:21:09;16.13;;;8.17;;
5277;SDS011;2662;51.194;6.614;2023-08-17T02:23:35;10.50;;;7.73;;
5277;SDS011;2662;51.194;6.614;2023-08-17T02:26:02;10.50;;;6.97;;
5277;SDS011;2662;51.194;6.614;2023-08-17T02:28:29;10.17;;;7.87;;
5277;SDS011;2662;51.194;6.614;2023-08-17T02:30:57;8.23;;;6.70;;
5277;SDS011;2662;51.194;6.614;2023-08-17T02:33:24;8.53;;;7.63;;
5277;SDS011;2662;51.194;6.614;2023-08-17T02:35:51;12.83;;;7.07;;
5277;SDS011;2662;51.194;6.614;2023-08-17T02:38:18;9.37;;;7.40;;
5277;SDS011;2662;51.194;6.614;2023-08-17T02:40:45;13.97;;;7.07;;
5277;SDS011;2662;51.194;6.614;2023-08-17T02:43:12;14.67;;;7.90;;
5277;SDS011;2662;51.194;6.614;2023-08-17T02:45:38;10.57;;;7.40;;
5277;SDS011;2662;51.194;6.614;2023-08-17T02:48:06;10.63;;;7.00;;
5277;SDS011;2662;51.194;6.614;2023-08-17T02:50:33;11.60;;;7.60;;
5277;SDS011;2662;51.194;6.614;2023-08-17T02:53:00;10.53;;;7.87;;
5277;SDS011;2662;51.194;6.614;2023-08-17T02:55:27;11.40;;;7.90;;
5277;SDS011;2662;51.194;6.614;2023-08-17T02:57:54;14.13;;;8.00;;
5277;SDS011;2662;51.194;6.614;2023-08-17T03:00:20;9.73;;;6.83;;
5277;SDS011;2662;51.194;6.614;2023-08-17T03:02:47;12.60;;;7.63;;
5277;SDS011;2662;51.194;6.614;2023-08-17T03:05:15;11.20;;;7.60;;
5277;SDS011;2662;51.194;6.614;2023-08-17T03:07:42;12.03;;;6.73;;
5277;SDS011;2662;51.194;6.614;2023-08-17T03:10:09;13.50;;;7.00;;
5277;SDS011;2662;51.194;6.614;2023-08-17T03:12:35;10.63;;;6.10;;
5277;SDS011;2662;51.194;6.614;2023-08-17T03:15:03;12.40;;;7.40;;
5277;SDS011;2662;51.194;6.614;2023-08-17T03:17:30;13.20;;;7.10;;
5277;SDS011;2662;51.194;6.614;2023-08-17T03:19:57;11.43;;;6.93;;
5277;SDS011;2662;51.194;6.614;2023-08-17T03:22:26;9.37;;;6.80;;
5277;SDS011;2662;51.194;6.614;2023-08-17T03:24:54;16.20;;;7.97;;
5277;SDS011;2662;51.194;6.614;2023-08-17T03:27:21;14.67;;;6.63;;
5277;SDS011;2662;51.194;6.614;2023-08-17T03:29:49;11.20;;;7.50;;
5277;SDS011;2662;51.194;6.614;2023-08-17T03:32:16;15.83;;;8.37;;
5277;SDS011;2662;51.194;6.614;2023-08-17T03:34:43;15.77;;;7.93;;
5277;SDS011;2662;51.194;6.614;2023-08-17T03:37:09;12.93;;;7.50;;
5277;SDS011;2662;51.194;6.614;2023-08-17T03:39:37;11.60;;;8.00;;
5277;SDS011;2662;51.194;6.614;2023-08-17T03:42:04;24.90;;;8.00;;
5277;SDS011;2662;51.194;6.614;2023-08-17T03:44:31;12.33;;;7.60;;
5277;SDS011;2662;51.194;6.614;2023-08-17T03:46:58;12.90;;;8.93;;
5277;SDS011;2662;51.194;6.614;2023-08-17T03:49:24;15.03;;;7.20;;
5277;SDS011;2662;51.194;6.614;2023-08-17T03:51:51;17.63;;;9.03;;
5277;SDS011;2662;51.194;6.614;2023-08-17T03:54:18;14.80;;;8.67;;
5277;SDS011;2662;51.194;6.614;2023-08-17T03:56:46;11.23;;;8.77;;
5277;SDS011;2662;51.194;6.614;2023-08-17T03:59:13;13.23;;;9.47;;
5277;SDS011;2662;51.194;6.614;2023-08-17T04:01:40;15.57;;;10.23;;
5277;SDS011;2662;51.194;6.614;2023-08-17T04:04:06;12.43;;;9.40;;
5277;SDS011;2662;51.194;6.614;2023-08-17T04:06:34;21.00;;;9.63;;
5277;SDS011;2662;51.194;6.614;2023-08-17T04:09:01;13.90;;;9.57;;
5277;SDS011;2662;51.194;6.614;2023-08-17T04:11:27;19.77;;;9.90;;
5277;SDS011;2662;51.194;6.614;2023-08-17T04:13:55;20.57;;;9.90;;
5277;SDS011;2662;51.194;6.614;2023-08-17T04:16:22;16.73;;;9.70;;
5277;SDS011;2662;51.194;6.614;2023-08-17T04:18:49;16.13;;;9.63;;
5277;SDS011;2662;51.194;6.614;2023-08-17T04:21:16;15.33;;;9.67;;
5277;SDS011;2662;51.194;6.614;2023-08-17T04:23:42;14.13;;;8.93;;
5277;SDS011;2662;51.194;6.614;2023-08-17T04:26:09;14.63;;;9.10;;
5277;SDS011;2662;51.194;6.614;2023-08-17T04:28:36;14.13;;;8.40;;
5277;SDS011;2662;51.194;6.614;2023-08-17T04:31:04;14.37;;;9.20;;
5277;SDS011;2662;51.194;6.614;2023-08-17T04:33:31;15.17;;;8.90;;
5277;SDS011;2662;51.194;6.614;2023-08-17T04:35:57;16.23;;;9.43;;
5277;SDS011;2662;51.194;6.614;2023-08-17T04:38:25;23.73;;;10.77;;
5277;SDS011;2662;51.194;6.614;2023-08-17T04:40:52;19.23;;;10.20;;
5277;SDS011;2662;51.194;6.614;2023-08-17T04:43:19;15.17;;;10.30;;
5277;SDS011;2662;51.194;6.614;2023-08-17T04:45:46;16.23;;;10.00;;
5277;SDS011;2662;51.194;6.614;2023-08-17T04:48:14;17.47;;;9.63;;
5277;SDS011;2662;51.194;6.614;2023-08-17T04:50:41;18.23;;;10.77;;
5277;SDS011;2662;51.194;6.614;2023-08-17T04:53:08;16.63;;;9.83;;
5277;SDS011;2662;51.194;6.614;2023-08-17T04:55:34;13.30;;;9.50;;
5277;SDS011;2662;51.194;6.614;2023-08-17T04:58:01;15.17;;;10.20;;
5277;SDS011;2662;51.194;6.614;2023-08-17T05:00:28;23.10;;;10.43;;
5277;SDS011;2662;51.194;6.614;2023-08-17T05:02:55;18.90;;;9.33;;
5277;SDS011;2662;51.194;6.614;2023-08-17T05:05:23;21.00;;;10.13;;
5277;SDS011;2662;51.194;6.614;2023-08-17T05:07:51;15.80;;;9.93;;
5277;SDS011;2662;51.194;6.614;2023-08-17T05:10:18;13.33;;;9.00;;
5277;SDS011;2662;51.194;6.614;2023-08-17T05:12:45;16.90;;;8.90;;
5277;SDS011;2662;51.194;6.614;2023-08-17T05:15:12;16.20;;;9.37;;
5277;SDS011;2662;51.194;6.614;2023-08-17T05:17:39;12.03;;;9.20;;
5277;SDS011;2662;51.194;6.614;2023-08-17T05:20:06;15.10;;;9.37;;
5277;SDS011;2662;51.194;6.614;2023-08-17T05:22:35;19.80;;;10.67;;
5277;SDS011;2662;51.194;6.614;2023-08-17T05:25:02;20.07;;;10.97;;
5277;SDS011;2662;51.194;6.614;2023-08-17T05:27:29;18.00;;;11.17;;
5277;SDS011;2662;51.194;6.614;2023-08-17T05:29:56;19.60;;;11.70;;
5277;SDS011;2662;51.194;6.614;2023-08-17T05:32:23;22.17;;;10.90;;
5277;SDS011;2662;51.194;6.614;2023-08-17T05:34:50;27.00;;;10.53;;
5277;SDS011;2662;51.194;6.614;2023-08-17T05:37:16;16.70;;;10.00;;
5277;SDS011;2662;51.194;6.614;2023-08-17T05:39:44;18.00;;;11.27;;
5277;SDS011;2662;51.194;6.614;2023-08-17T05:42:11;26.90;;;11.90;;
5277;SDS011;2662;51.194;6.614;2023-08-17T05:44:38;20.40;;;11.87;;
5277;SDS011;2662;51.194;6.614;2023-08-17T05:47:04;17.20;;;11.30;;
5277;SDS011;2662;51.194;6.614;2023-08-17T05:49:31;23.20;;;10.50;;
5277;SDS011;2662;51.194;6.614;2023-08-17T05:51:58;27.73;;;12.37;;
5277;SDS011;2662;51.194;6.614;2023-08-17T05:54:24;16.63;;;10.40;;
5277;SDS011;2662;51.194;6.614;2023-08-17T05:56:53;17.90;;;11.63;;
5277;SDS011;2662;51.194;6.614;2023-08-17T05:59:19;18.33;;;11.13;;
5277;SDS011;2662;51.194;6.614;2023-08-17T06:01:46;20.10;;;10.57;;
5277;SDS011;2662;51.194;6.614;2023-08-17T06:04:13;19.50;;;11.37;;
5277;SDS011;2662;51.194;6.614;2023-08-17T06:06:39;20.77;;;11.73;;
5277;SDS011;2662;51.194;6.614;2023-08-17T06:09:06;22.27;;;11.53;;
5277;SDS011;2662;51.194;6.614;2023-08-17T06:11:33;19.30;;;12.83;;
5277;SDS011;2662;51.194;6.614;2023-08-17T06:14:02;27.90;;;14.10;;
5277;SDS011;2662;51.194;6.614;2023-08-17T06:16:28;21.13;;;13.67;;
5277;SDS011;2662;51.194;6.614;2023-08-17T06:18:55;23.60;;;14.07;;
5277;SDS011;2662;51.194;6.614;2023-08-17T06:21:22;22.93;;;13.63;;
5277;SDS011;2662;51.194;6.614;2023-08-17T06:23:48;25.83;;;13.70;;
5277;SDS011;2662;51.194;6.614;2023-08-17T06:26:15;24.87;;;14.07;;
5277;SDS011;2662;51.194;6.614;2023-08-17T06:28:42;27.80;;;13.23;;
5277;SDS011;2662;51.194;6.614;2023-08-17T06:31:10;20.60;;;12.93;;
5277;SDS011;2662;51.194;6.614;2023-08-17T06:33:40;22.50;;;13.27;;
5277;SDS011;2662;51.194;6.614;2023-08-17T06:36:07;28.73;;;14.33;;
5277;SDS011;2662;51.194;6.614;2023-08-17T06:38:33;25.00;;;13.23;;
5277;SDS011;2662;51.194;6.614;2023-08-17T06:41:00;24.20;;;14.20;;
5277;SDS011;2662;51.194;6.614;2023-08-17T06:43:27;21.60;;;13.03;;
5277;SDS011;2662;51.194;6.614;2023-08-17T06:45:53;22.13;;;13.00;;
5277;SDS011;2662;51.194;6.614;2023-08-17T06:48:22;25.00;;;13.40;;
5277;SDS011;2662;51.194;6.614;2023-08-17T06:50:49;22.50;;;13.20;;
5277;SDS011;2662;51.194;6.614;2023-08-17T06:53:16;22.70;;;12.47;;
5277;SDS011;2662;51.194;6.614;2023-08-17T06:55:42;20.50;;;12.87;;
5277;SDS011;2662;51.194;6.614;2023-08-17T06:58:09;32.03;;;13.70;;
5277;SDS011;2662;51.194;6.614;2023-08-17T07:00:36;25.20;;;11.77;;
5277;SDS011;2662;51.194;6.614;2023-08-17T07:03:05;23.40;;;13.27;;
5277;SDS011;2662;51.194;6.614;2023-08-17T07:05:33;21.23;;;12.80;;
5277;SDS011;2662;51.194;6.614;2023-08-17T07:08:00;19.10;;;12.53;;
5277;SDS011;2662;51.194;6.614;2023-08-17T07:10:27;23.80;;;13.40;;
5277;SDS011;2662;51.194;6.614;2023-08-17T07:12:54;21.70;;;11.90;;
5277;SDS011;2662;51.194;6.614;2023-08-17T07:15:20;23.90;;;13.37;;
5277;SDS011;2662;51.194;6.614;2023-08-17T07:17:47;22.40;;;13.40;;
5277;SDS011;2662;51.194;6.614;2023-08-17T07:20:14;21.83;;;13.13;;
5277;SDS011;2662;51.194;6.614;2023-08-17T07:22:42;25.17;;;14.60;;
5277;SDS011;2662;51.194;6.614;2023-08-17T07:25:09;22.27;;;14.30;;
5277;SDS011;2662;51.194;6.614;2023-08-17T07:27:35;30.83;;;16.57;;
5277;SDS011;2662;51.194;6.614;2023-08-17T07:30:03;23.97;;;14.60;;
5277;SDS011;2662;51.194;6.614;2023-08-17T07:32:30;24.10;;;16.60;;
5277;SDS011;2662;51.194;6.614;2023-08-17T07:34:57;30.43;;;15.60;;
5277;SDS011;2662;51.194;6.614;2023-08-17T07:37:24;29.80;;;14.57;;
5277;SDS011;2662;51.194;6.614;2023-08-17T07:39:57;23.10;;;13.80;;
5277;SDS011;2662;51.194;6.614;2023-08-17T07:42:24;27.80;;;14.37;;
5277;SDS011;2662;51.194;6.614;2023-08-17T07:44:51;22.63;;;13.67;;
5277;SDS011;2662;51.194;6.614;2023-08-17T07:47:17;23.00;;;14.47;;
5277;SDS011;2662;51.194;6.614;2023-08-17T07:49:44;28.07;;;15.10;;
5277;SDS011;2662;51.194;6.614;2023-08-17T07:52:11;20.07;;;13.80;;
5277;SDS011;2662;51.194;6.614;2023-08-17T07:54:37;30.07;;;15.43;;
5277;SDS011;2662;51.194;6.614;2023-08-17T07:57:06;26.87;;;14.43;;
5277;SDS011;2662;51.194;6.614;2023-08-17T07:59:32;24.53;;;13.57;;
5277;SDS011;2662;51.194;6.614;2023-08-17T08:01:59;19.47;;;13.37;;
5277;SDS011;2662;51.194;6.614;2023-08-17T08:04:26;23.63;;;13.50;;
5277;SDS011;2662;51.194;6.614;2023-08-17T08:06:52;24.90;;;14.60;;
5277;SDS011;2662;51.194;6.614;2023-08-17T08:09:19;29.17;;;13.93;;
5277;SDS011;2662;51.194;6.614;2023-08-17T08:11:46;28.87;;;15.20;;
5277;SDS011;2662;51.194;6.614;2023-08-17T08:14:14;26.67;;;14.90;;
5277;SDS011;2662;51.194;6.614;2023-08-17T08:16:42;44.23;;;16.70;;
5277;SDS011;2662;51.194;6.614;2023-08-17T08:19:08;25.07;;;14.83;;
5277;SDS011;2662;51.194;6.614;2023-08-17T08:21:35;22.83;;;15.80;;
5277;SDS011;2662;51.194;6.614;2023-08-17T08:24:02;30.93;;;13.77;;
5277;SDS011;2662;51.194;6.614;2023-08-17T08:26:29;24.60;;;14.67;;
5277;SDS011;2662;51.194;6.614;2023-08-17T08:28:55;26.10;;;14.43;;
5277;SDS011;2662;51.194;6.614;2023-08-17T08:31:23;26.00;;;14.70;;
5277;SDS011;2662;51.194;6.614;2023-08-17T08:33:50;27.43;;;13.93;;
5277;SDS011;2662;51.194;6.614;2023-08-17T08:36:18;24.37;;;14.57;;
5277;SDS011;2662;51.194;6.614;2023-08-17T08:38:44;24.47;;;14.33;;
5277;SDS011;2662;51.194;6.614;2023-08-17T08:41:11;28.20;;;15.23;;
5277;SDS011;2662;51.194;6.614;2023-08-17T08:43:38;21.77;;;15.67;;
5277;SDS011;2662;51.194;6.614;2023-08-17T08:46:05;25.13;;;15.57;;
5277;SDS011;2662;51.194;6.614;2023-08-17T08:48:33;28.67;;;13.87;;
5277;SDS011;2662;51.194;6.614;2023-08-17T08:51:01;27.23;;;13.67;;
5277;SDS011;2662;51.194;6.614;2023-08-17T08:53:38;23.90;;;13.33;;
5277;SDS011;2662;51.194;6.614;2023-08-17T08:56:10;23.43;;;13.07;;
5277;SDS011;2662;51.194;6.614;2023-08-17T08:58:38;19.47;;;13.00;;
5277;SDS011;2662;51.194;6.614;2023-08-17T09:01:15;30.13;;;13.23;;
5277;SDS011;2662;51.194;6.614;2023-08-17T09:03:44;18.67;;;13.37;;
5277;SDS011;2662;51.194;6.614;2023-08-17T09:06:13;19.07;;;13.23;;
5277;SDS011;2662;51.194;6.614;2023-08-17T09:08:41;17.40;;;12.90;;
5277;SDS011;2662;51.194;6.614;2023-08-17T09:11:11;17.30;;;12.30;;
5277;SDS011;2662;51.194;6.614;2023-08-17T09:13:37;18.37;;;13.27;;
5277;SDS011;2662;51.194;6.614;2023-08-17T09:16:04;21.10;;;12.50;;
5277;SDS011;2662;51.194;6.614;2023-08-17T09:18:31;28.43;;;12.83;;
5277;SDS011;2662;51.194;6.614;2023-08-17T09:20:59;19.50;;;13.27;;
5277;SDS011;2662;51.194;6.614;2023-08-17T09:23:26;20.90;;;12.67;;
5277;SDS011;2662;51.194;6.614;2023-08-17T09:25:53;19.43;;;13.27;;
5277;SDS011;2662;51.194;6.614;2023-08-17T09:28:23;25.90;;;14.43;;
5277;SDS011;2662;51.194;6.614;2023-08-17T09:30:50;29.50;;;13.20;;
5277;SDS011;2662;51.194;6.614;2023-08-17T09:33:19;17.67;;;12.87;;
5277;SDS011;2662;51.194;6.614;2023-08-17T09:35:47;22.83;;;13.53;;
5277;SDS011;2662;51.194;6.614;2023-08-17T09:38:15;20.53;;;14.00;;
5277;SDS011;2662;51.194;6.614;2023-08-17T09:40:42;20.97;;;13.63;;
5277;SDS011;2662;51.194;6.614;2023-08-17T09:43:09;23.07;;;12.80;;
5277;SDS011;2662;51.194;6.614;2023-08-17T09:45:37;22.33;;;13.80;;
5277;SDS011;2662;51.194;6.614;2023-08-17T09:48:04;19.87;;;12.40;;
5277;SDS011;2662;51.194;6.614;2023-08-17T09:50:31;23.90;;;14.40;;
5277;SDS011;2662;51.194;6.614;2023-08-17T09:52:59;17.60;;;12.40;;
5277;SDS011;2662;51.194;6.614;2023-08-17T09:55:29;18.57;;;12.17;;
5277;SDS011;2662;51.194;6.614;2023-08-17T09:57:57;21.33;;;13.93;;
5277;SDS011;2662;51.194;6.614;2023-08-17T10:00:23;23.90;;;13.20;;
5277;SDS011;2662;51.194;6.614;2023-08-17T10:02:51;25.87;;;14.00;;
5277;SDS011;2662;51.194;6.614;2023-08-17T10:05:19;25.70;;;13.60;;
5277;SDS011;2662;51.194;6.614;2023-08-17T10:07:47;24.03;;;14.47;;
5277;SDS011;2662;51.194;6.614;2023-08-17T10:10:19;26.30;;;13.83;;
5277;SDS011;2662;51.194;6.614;2023-08-17T10:13:00;21.07;;;12.93;;
5277;SDS011;2662;51.194;6.614;2023-08-17T10:15:36;18.30;;;13.47;;
5277;SDS011;2662;51.194;6.614;2023-08-17T10:18:09;24.23;;;13.47;;
5277;SDS011;2662;51.194;6.614;2023-08-17T10:20:58;25.03;;;13.63;;
5277;SDS011;2662;51.194;6.614;2023-08-17T10:23:29;22.60;;;13.70;;
5277;SDS011;2662;51.194;6.614;2023-08-17T10:25:57;18.13;;;12.87;;
5277;SDS011;2662;51.194;6.614;2023-08-17T10:28:27;21.43;;;13.33;;
5277;SDS011;2662;51.194;6.614;2023-08-17T10:30:54;23.30;;;13.47;;
5277;SDS011;2662;51.194;6.614;2023-08-17T10:33:21;25.10;;;13.50;;
5277;SDS011;2662;51.194;6.614;2023-08-17T10:35:48;21.80;;;13.23;;
5277;SDS011;2662;51.194;6.614;2023-08-17T10:38:15;24.37;;;13.30;;
5277;SDS011;2662;51.194;6.614;2023-08-17T10:40:43;22.80;;;12.33;;
5277;SDS011;2662;51.194;6.614;2023-08-17T10:43:10;21.07;;;12.00;;
5277;SDS011;2662;51.194;6.614;2023-08-17T10:45:39;22.30;;;12.97;;
5277;SDS011;2662;51.194;6.614;2023-08-17T10:48:24;19.23;;;11.70;;
5277;SDS011;2662;51.194;6.614;2023-08-17T10:50:59;19.07;;;11.57;;
5277;SDS011;2662;51.194;6.614;2023-08-17T10:53:36;14.60;;;9.90;;
5277;SDS011;2662;51.194;6.614;2023-08-17T10:56:07;20.53;;;10.70;;
5277;SDS011;2662;51.194;6.614;2023-08-17T10:58:37;19.90;;;12.00;;
5277;SDS011;2662;51.194;6.614;2023-08-17T11:01:05;22.00;;;12.70;;
5277;SDS011;2662;51.194;6.614;2023-08-17T11:03:32;18.53;;;12.13;;
5277;SDS011;2662;51.194;6.614;2023-08-17T11:06:13;21.50;;;13.07;;
5277;SDS011;2662;51.194;6.614;2023-08-17T11:08:50;19.83;;;12.17;;
5277;SDS011;2662;51.194;6.614;2023-08-17T11:11:19;19.97;;;12.93;;
5277;SDS011;2662;51.194;6.614;2023-08-17T11:13:46;21.90;;;13.07;;
5277;SDS011;2662;51.194;6.614;2023-08-17T11:16:16;22.03;;;13.60;;
5277;SDS011;2662;51.194;6.614;2023-08-17T11:18:44;21.73;;;13.57;;
5277;SDS011;2662;51.194;6.614;2023-08-17T11:21:11;22.27;;;12.73;;
5277;SDS011;2662;51.194;6.614;2023-08-17T11:23:39;16.27;;;12.23;;
5277;SDS011;2662;51.194;6.614;2023-08-17T11:26:06;23.70;;;14.03;;
5277;SDS011;2662;51.194;6.614;2023-08-17T11:28:34;23.00;;;13.63;;
5277;SDS011;2662;51.194;6.614;2023-08-17T11:31:04;15.00;;;11.30;;
5277;SDS011;2662;51.194;6.614;2023-08-17T11:33:34;16.20;;;12.20;;
5277;SDS011;2662;51.194;6.614;2023-08-17T11:36:02;17.10;;;11.57;;
5277;SDS011;2662;51.194;6.614;2023-08-17T11:38:31;18.63;;;11.67;;
5277;SDS011;2662;51.194;6.614;2023-08-17T11:40:59;26.27;;;11.80;;
5277;SDS011;2662;51.194;6.614;2023-08-17T11:43:25;15.67;;;11.87;;
5277;SDS011;2662;51.194;6.614;2023-08-17T11:45:54;26.10;;;13.30;;
5277;SDS011;2662;51.194;6.614;2023-08-17T11:48:21;20.27;;;13.23;;
5277;SDS011;2662;51.194;6.614;2023-08-17T11:50:49;24.00;;;13.60;;
5277;SDS011;2662;51.194;6.614;2023-08-17T11:53:17;22.50;;;12.43;;
5277;SDS011;2662;51.194;6.614;2023-08-17T11:55:44;19.57;;;12.27;;
5277;SDS011;2662;51.194;6.614;2023-08-17T11:58:11;20.93;;;12.50;;
5277;SDS011;2662;51.194;6.614;2023-08-17T12:00:39;21.87;;;12.23;;
5277;SDS011;2662;51.194;6.614;2023-08-17T12:03:07;21.00;;;11.30;;
5277;SDS011;2662;51.194;6.614;2023-08-17T12:05:34;20.20;;;11.57;;
5277;SDS011;2662;51.194;6.614;2023-08-17T12:08:03;19.40;;;11.60;;
5277;SDS011;2662;51.194;6.614;2023-08-17T12:10:30;17.50;;;11.33;;
5277;SDS011;2662;51.194;6.614;2023-08-17T12:12:58;18.23;;;11.17;;
5277;SDS011;2662;51.194;6.614;2023-08-17T12:15:29;19.73;;;11.90;;
5277;SDS011;2662;51.194;6.614;2023-08-17T12:17:58;17.20;;;11.87;;
5277;SDS011;2662;51.194;6.614;2023-08-17T12:20:26;16.70;;;11.90;;
5277;SDS011;2662;51.194;6.614;2023-08-17T12:22:53;19.63;;;13.20;;
5277;SDS011;2662;51.194;6.614;2023-08-17T12:25:21;16.47;;;11.93;;
5277;SDS011;2662;51.194;6.614;2023-08-17T12:27:49;16.80;;;11.90;;
5277;SDS011;2662;51.194;6.614;2023-08-17T12:30:24;22.10;;;12.47;;
5277;SDS011;2662;51.194;6.614;2023-08-17T12:32:51;16.07;;;11.63;;
5277;SDS011;2662;51.194;6.614;2023-08-17T12:35:18;18.53;;;11.80;;
5277;SDS011;2662;51.194;6.614;2023-08-17T12:37:46;16.57;;;11.30;;
5277;SDS011;2662;51.194;6.614;2023-08-17T12:40:13;21.43;;;11.07;;
5277;SDS011;2662;51.194;6.614;2023-08-17T12:42:41;16.67;;;11.93;;
5277;SDS011;2662;51.194;6.614;2023-08-17T12:45:08;19.90;;;11.80;;
5277;SDS011;2662;51.194;6.614;2023-08-17T12:47:35;16.40;;;12.80;;
5277;SDS011;2662;51.194;6.614;2023-08-17T12:50:03;27.40;;;12.70;;
5277;SDS011;2662;51.194;6.614;2023-08-17T12:52:30;22.53;;;10.77;;
5277;SDS011;2662;51.194;6.614;2023-08-17T12:54:56;16.57;;;11.40;;
5277;SDS011;2662;51.194;6.614;2023-08-17T12:57:23;17.77;;;11.80;;
5277;SDS011;2662;51.194;6.614;2023-08-17T12:59:53;14.63;;;10.30;;
5277;SDS011;2662;51.194;6.614;2023-08-17T13:02:20;23.20;;;12.20;;
5277;SDS011;2662;51.194;6.614;2023-08-17T13:04:46;17.33;;;11.57;;
5277;SDS011;2662;51.194;6.614;2023-08-17T13:07:13;15.47;;;11.03;;
5277;SDS011;2662;51.194;6.614;2023-08-17T13:09:40;18.20;;;11.70;;
5277;SDS011;2662;51.194;6.614;2023-08-17T13:12:07;18.67;;;12.83;;
5277;SDS011;2662;51.194;6.614;2023-08-17T13:14:34;16.50;;;12.27;;
5277;SDS011;2662;51.194;6.614;2023-08-17T13:17:02;15.30;;;11.10;;
5277;SDS011;2662;51.194;6.614;2023-08-17T13:19:29;18.53;;;13.03;;
5277;SDS011;2662;51.194;6.614;2023-08-17T13:21:56;18.80;;;12.87;;
5277;SDS011;2662;51.194;6.614;2023-08-17T13:24:22;18.40;;;12.63;;
5277;SDS011;2662;51.194;6.614;2023-08-17T13:26:49;17.30;;;12.73;;
5277;SDS011;2662;51.194;6.614;2023-08-17T13:29:19;18.83;;;12.80;;
5277;SDS011;2662;51.194;6.614;2023-08-17T13:31:46;21.43;;;12.87;;
5277;SDS011;2662;51.194;6.614;2023-08-17T13:34:14;21.03;;;13.40;;
5277;SDS011;2662;51.194;6.614;2023-08-17T13:36:41;23.97;;;14.03;;
5277;SDS011;2662;51.194;6.614;2023-08-17T13:39:08;20.27;;;14.03;;
5277;SDS011;2662;51.194;6.614;2023-08-17T13:41:35;19.17;;;13.97;;
5277;SDS011;2662;51.194;6.614;2023-08-17T13:44:02;18.90;;;13.13;;
5277;SDS011;2662;51.194;6.614;2023-08-17T13:46:29;21.50;;;13.77;;
5277;SDS011;2662;51.194;6.614;2023-08-17T13:48:56;17.83;;;13.30;;
5277;SDS011;2662;51.194;6.614;2023-08-17T13:51:24;23.33;;;14.27;;
5277;SDS011;2662;51.194;6.614;2023-08-17T13:53:51;18.30;;;13.00;;
5277;SDS011;2662;51.194;6.614;2023-08-17T13:56:17;18.60;;;12.87;;
5277;SDS011;2662;51.194;6.614;2023-08-17T13:58:44;22.23;;;13.73;;
5277;SDS011;2662;51.194;6.614;2023-08-17T14:01:11;17.13;;;13.13;;
5277;SDS011;2662;51.194;6.614;2023-08-17T14:03:39;20.17;;;13.17;;
5277;SDS011;2662;51.194;6.614;2023-08-17T14:06:07;19.27;;;12.93;;
5277;SDS011;2662;51.194;6.614;2023-08-17T14:08:35;18.57;;;12.47;;
5277;SDS011;2662;51.194;6.614;2023-08-17T14:11:02;17.00;;;12.17;;
5277;SDS011;2662;51.194;6.614;2023-08-17T14:13:29;16.90;;;12.63;;
5277;SDS011;2662;51.194;6.614;2023-08-17T14:15:56;17.80;;;11.33;;
5277;SDS011;2662;51.194;6.614;2023-08-17T14:18:24;15.30;;;12.33;;
5277;SDS011;2662;51.194;6.614;2023-08-17T14:20:51;15.70;;;11.80;;
5277;SDS011;2662;51.194;6.614;2023-08-17T14:23:18;21.93;;;12.40;;
5277;SDS011;2662;51.194;6.614;2023-08-17T14:25:46;14.27;;;11.73;;
5277;SDS011;2662;51.194;6.614;2023-08-17T14:28:12;17.53;;;12.40;;
5277;SDS011;2662;51.194;6.614;2023-08-17T14:30:39;18.63;;;12.73;;
5277;SDS011;2662;51.194;6.614;2023-08-17T14:33:06;18.93;;;12.97;;
5277;SDS011;2662;51.194;6.614;2023-08-17T14:35:33;19.53;;;12.00;;
5277;SDS011;2662;51.194;6.614;2023-08-17T14:37:59;21.20;;;13.80;;
5277;SDS011;2662;51.194;6.614;2023-08-17T14:40:27;19.40;;;12.63;;
5277;SDS011;2662;51.194;6.614;2023-08-17T14:42:55;24.20;;;14.50;;
5277;SDS011;2662;51.194;6.614;2023-08-17T14:45:21;22.63;;;13.67;;
5277;SDS011;2662;51.194;6.614;2023-08-17T14:47:48;21.93;;;14.00;;
5277;SDS011;2662;51.194;6.614;2023-08-17T14:50:15;23.67;;;16.93;;
5277;SDS011;2662;51.194;6.614;2023-08-17T14:52:42;21.87;;;14.40;;
5277;SDS011;2662;51.194;6.614;2023-08-17T14:55:08;26.93;;;15.40;;